createdAt,value
2022-12-25T00:00:20.405Z,99.90
2022-12-25T00:03:11.168Z,99.90
2022-12-25T00:06:00.066Z,99.90
2022-12-25T00:08:48.676Z,99.90
2022-12-25T00:11:39.176Z,99.90
2022-12-25T00:14:27.758Z,99.90
2022-12-25T00:17:16.465Z,99.90
2022-12-25T00:20:05.679Z,99.90
2022-12-25T00:22:54.424Z,99.90
2022-12-25T00:25:43.034Z,99.90
2022-12-25T00:28:33.190Z,99.90
2022-12-25T00:31:22.909Z,99.90
2022-12-25T00:34:11.560Z,99.90
2022-12-25T00:37:00.167Z,99.90
2022-12-25T00:39:49.750Z,99.90
2022-12-25T00:42:37.234Z,99.90
2022-12-25T00:45:27.344Z,99.90
2022-12-25T00:48:15.896Z,99.90
2022-12-25T00:51:06.970Z,99.90
2022-12-25T00:53:55.537Z,99.90
2022-12-25T00:56:44.822Z,99.90
2022-12-25T00:59:34.225Z,99.90
2022-12-25T01:02:26.922Z,99.90
2022-12-25T01:05:15.723Z,99.90
2022-12-25T01:08:04.275Z,99.90
2022-12-25T01:10:56.193Z,99.90
2022-12-25T01:13:44.723Z,99.90
2022-12-25T01:16:33.356Z,99.90
2022-12-25T01:19:23.423Z,99.90
2022-12-25T01:22:12.021Z,99.90
2022-12-25T01:25:00.617Z,99.90
2022-12-25T01:27:49.230Z,99.90
2022-12-25T01:30:37.830Z,99.90
2022-12-25T01:33:26.497Z,99.90
2022-12-25T01:36:18.120Z,99.90
2022-12-25T01:39:07.015Z,99.90
2022-12-25T01:41:56.072Z,99.90
2022-12-25T01:45:44.082Z,99.90
2022-12-25T01:48:36.196Z,99.90
2022-12-25T01:51:30.798Z,99.90
2022-12-25T01:54:23.015Z,99.90
2022-12-25T01:57:17.741Z,99.90
2022-12-25T02:00:08.190Z,99.90
2022-12-25T02:02:57.653Z,99.90
2022-12-25T02:05:47.741Z,99.90
2022-12-25T02:08:37.968Z,99.90
2022-12-25T02:11:44.052Z,99.90
2022-12-25T02:14:34.375Z,99.90
2022-12-25T02:17:29.474Z,99.90
2022-12-25T02:20:48.057Z,99.90
2022-12-25T02:24:10.063Z,99.90
2022-12-25T02:27:14.107Z,99.90
2022-12-25T02:30:07.731Z,99.90
2022-12-25T02:33:14.794Z,99.90
2022-12-25T02:36:07.874Z,99.90
2022-12-25T02:39:18.528Z,99.90
2022-12-25T02:42:13.747Z,99.90
2022-12-25T02:45:21.170Z,99.90
2022-12-25T02:48:29.534Z,99.90
2022-12-25T02:51:38.874Z,99.90
2022-12-25T02:55:01.918Z,99.90
2022-12-25T02:58:10.799Z,99.90
2022-12-25T03:01:22.630Z,99.90
2022-12-25T03:04:32.459Z,99.90
2022-12-25T03:07:24.188Z,99.90
2022-12-25T03:10:33.727Z,99.90
2022-12-25T03:13:26.457Z,99.90
2022-12-25T03:16:34.017Z,99.90
2022-12-25T03:19:41.953Z,99.90
2022-12-25T03:22:51.012Z,99.90
2022-12-25T03:25:57.222Z,99.90
2022-12-25T03:28:45.800Z,99.90
2022-12-25T03:31:41.696Z,99.90
2022-12-25T03:34:56.152Z,99.90
2022-12-25T03:38:14.344Z,99.90
2022-12-25T03:41:36.756Z,99.90
2022-12-25T03:44:50.749Z,99.90
2022-12-25T03:48:16.558Z,99.90
2022-12-25T03:51:28.941Z,99.90
2022-12-25T03:54:39.020Z,99.90
2022-12-25T03:57:45.153Z,99.90
2022-12-25T04:00:51.209Z,99.90
2022-12-25T04:04:12.854Z,99.90
2022-12-25T04:07:18.598Z,99.90
2022-12-25T04:10:26.004Z,99.90
2022-12-25T04:13:31.772Z,99.90
2022-12-25T04:16:37.398Z,99.90
2022-12-25T04:19:44.993Z,99.90
2022-12-25T04:22:50.694Z,99.90
2022-12-25T04:25:56.595Z,99.90
2022-12-25T04:29:02.729Z,99.90
2022-12-25T04:32:08.310Z,99.90
2022-12-25T04:35:15.768Z,99.90
2022-12-25T04:38:04.348Z,99.90
2022-12-25T04:40:52.977Z,99.90
2022-12-25T04:43:41.761Z,99.90
2022-12-25T04:46:30.435Z,99.90
2022-12-25T04:49:19.071Z,99.90
2022-12-25T04:52:09.039Z,99.90
2022-12-25T04:54:57.616Z,99.90
2022-12-25T04:57:46.789Z,99.90
2022-12-25T05:00:35.370Z,99.90
2022-12-25T05:03:25.256Z,99.90
2022-12-25T05:06:13.908Z,99.90
2022-12-25T05:09:04.269Z,99.90
2022-12-25T05:11:52.849Z,99.90
2022-12-25T05:14:41.449Z,99.90
2022-12-25T05:17:30.010Z,99.90
2022-12-25T05:20:18.669Z,99.90
2022-12-25T05:23:07.219Z,99.90
2022-12-25T05:25:57.180Z,99.90
2022-12-25T05:28:45.987Z,99.90
2022-12-25T05:31:49.889Z,99.90
2022-12-25T05:34:38.489Z,99.90
2022-12-25T05:37:28.856Z,99.90
2022-12-25T05:40:17.580Z,99.90
2022-12-25T05:43:07.719Z,99.90
2022-12-25T05:45:56.302Z,99.90
2022-12-25T05:48:45.076Z,99.90
2022-12-25T05:51:33.679Z,99.90
2022-12-25T05:54:22.277Z,99.90
2022-12-25T05:57:10.895Z,99.90
2022-12-25T06:00:00.918Z,99.90
2022-12-25T06:02:49.646Z,99.90
2022-12-25T06:05:39.605Z,99.90
2022-12-25T06:08:28.347Z,99.90
2022-12-25T06:11:17.222Z,99.90
2022-12-25T06:14:05.809Z,99.90
2022-12-25T06:16:55.820Z,99.90
2022-12-25T06:19:44.472Z,99.90
2022-12-25T06:22:33.928Z,99.90
2022-12-25T06:25:22.691Z,99.90
2022-12-25T06:28:11.306Z,99.90
2022-12-25T06:30:59.889Z,99.90
2022-12-25T06:33:50.622Z,99.90
2022-12-25T06:36:39.967Z,99.90
2022-12-25T06:39:28.583Z,99.90
2022-12-25T06:42:17.132Z,99.90
2022-12-25T06:45:06.327Z,99.90
2022-12-25T06:47:54.838Z,99.90
2022-12-25T06:50:45.477Z,99.90
2022-12-25T06:53:39.647Z,99.90
2022-12-25T06:56:29.821Z,99.90
2022-12-25T06:59:18.335Z,99.90
2022-12-25T07:02:07.773Z,99.90
2022-12-25T07:04:56.469Z,99.90
2022-12-25T07:07:46.428Z,99.90
2022-12-25T07:10:34.967Z,99.90
2022-12-25T07:13:23.557Z,99.90
2022-12-25T07:16:13.799Z,99.90
2022-12-25T07:19:02.576Z,99.90
2022-12-25T07:21:51.239Z,99.90
2022-12-25T07:24:41.290Z,99.90
2022-12-25T07:27:29.939Z,99.90
2022-12-25T07:30:18.527Z,99.90
2022-12-25T07:33:07.107Z,99.90
2022-12-25T07:35:55.680Z,99.90
2022-12-25T07:38:44.575Z,99.90
2022-12-25T07:41:34.577Z,99.90
2022-12-25T07:44:23.191Z,99.90
2022-12-25T07:47:11.789Z,99.90
2022-12-25T07:50:00.399Z,99.90
2022-12-25T07:52:49.317Z,99.90
2022-12-25T07:55:37.881Z,99.90
2022-12-25T07:58:27.943Z,99.90
2022-12-25T08:01:18.382Z,99.90
2022-12-25T08:04:08.399Z,99.90
2022-12-25T08:06:57.001Z,99.90
2022-12-25T08:09:45.651Z,99.90
2022-12-25T08:12:34.257Z,99.90
2022-12-25T08:15:24.215Z,99.90
2022-12-25T08:18:12.931Z,99.90
2022-12-25T08:21:04.759Z,99.90
2022-12-25T08:23:53.365Z,99.90
2022-12-25T08:26:41.993Z,99.90
2022-12-25T08:29:31.147Z,99.90
2022-12-25T08:32:21.228Z,99.90
2022-12-25T08:35:10.468Z,99.90
2022-12-25T08:37:59.328Z,99.90
2022-12-25T08:40:47.918Z,99.90
2022-12-25T08:43:36.486Z,99.90
2022-12-25T08:46:25.281Z,99.90
2022-12-25T08:49:16.427Z,99.90
2022-12-25T08:52:05.068Z,99.90
2022-12-25T08:54:53.666Z,99.90
2022-12-25T08:57:43.872Z,99.90
2022-12-25T09:05:23.098Z,99.90
2022-12-25T09:08:13.027Z,99.90
2022-12-25T09:15:31.653Z,99.90
2022-12-25T09:18:40.962Z,99.90
2022-12-25T09:25:32.648Z,99.90
2022-12-25T09:28:21.411Z,99.90
2022-12-25T09:31:10.082Z,99.90
2022-12-25T09:33:59.418Z,99.90
2022-12-25T09:36:48.027Z,99.90
2022-12-25T09:39:40.753Z,99.90
2022-12-25T09:42:36.210Z,99.90
2022-12-25T09:45:28.678Z,99.90
2022-12-25T09:48:17.768Z,99.90
2022-12-25T09:51:14.387Z,99.90
2022-12-25T09:54:11.021Z,99.90
2022-12-25T09:56:59.617Z,99.90
2022-12-25T09:59:49.707Z,99.90
2022-12-25T10:02:52.009Z,99.90
2022-12-25T10:06:10.448Z,99.90
2022-12-25T10:09:14.096Z,99.90
2022-12-25T10:12:24.017Z,99.90
2022-12-25T10:15:27.378Z,99.90
2022-12-25T10:34:45.422Z,99.90
2022-12-25T10:37:34.169Z,99.90
2022-12-25T10:40:32.037Z,99.90
2022-12-25T10:43:27.848Z,99.90
2022-12-25T10:46:19.415Z,99.90
2022-12-25T10:49:16.998Z,99.90
2022-12-25T10:52:19.418Z,99.90
2022-12-25T10:55:13.393Z,99.90
2022-12-25T10:58:02.721Z,99.90
2022-12-25T11:00:56.417Z,99.90
2022-12-25T11:03:52.512Z,99.90
2022-12-25T11:06:41.218Z,99.90
2022-12-25T11:09:29.923Z,99.90
2022-12-25T11:12:20.813Z,99.90
2022-12-25T11:15:35.134Z,99.90
2022-12-25T11:18:26.154Z,99.90
2022-12-25T11:21:19.491Z,99.90
2022-12-25T11:24:18.869Z,99.90
2022-12-25T11:27:07.844Z,99.90
2022-12-25T11:30:00.726Z,99.90
2022-12-25T11:32:56.274Z,99.90
2022-12-25T11:35:53.000Z,99.90
2022-12-25T11:38:43.046Z,99.90
2022-12-25T11:41:34.385Z,99.90
2022-12-25T11:44:30.517Z,99.90
2022-12-25T11:47:24.417Z,99.90
2022-12-25T11:50:23.528Z,99.90
2022-12-25T11:53:18.798Z,99.90
2022-12-25T11:56:11.032Z,99.90
2022-12-25T11:59:04.705Z,99.90
2022-12-25T12:01:58.084Z,99.90
2022-12-25T12:04:51.115Z,99.90
2022-12-25T12:07:51.692Z,99.90
2022-12-25T12:10:52.518Z,99.90
2022-12-25T12:14:00.595Z,98.80
2022-12-25T12:16:49.374Z,99.40
2022-12-25T12:19:39.132Z,98.90
2022-12-25T12:22:29.294Z,96.60
2022-12-25T12:25:19.337Z,97.60
2022-12-25T12:28:12.863Z,95.80
2022-12-25T12:31:05.508Z,97.60
2022-12-25T12:33:57.310Z,98.50
2022-12-25T12:36:45.973Z,99.20
2022-12-25T12:39:38.493Z,98.80
2022-12-25T12:42:29.220Z,99.70
2022-12-25T12:45:20.332Z,99.10
2022-12-25T12:48:23.978Z,99.30
2022-12-25T12:51:14.789Z,99.90
2022-12-25T12:54:20.272Z,99.40
2022-12-25T12:57:24.432Z,99.90
2022-12-25T13:00:19.384Z,99.90
2022-12-25T13:03:37.438Z,99.90
2022-12-25T13:06:36.568Z,99.90
2022-12-25T13:09:36.116Z,99.90
2022-12-25T13:12:26.211Z,99.90
2022-12-25T13:15:16.087Z,99.90
2022-12-25T13:18:08.215Z,99.90
2022-12-25T13:21:00.059Z,99.90
2022-12-25T13:23:50.479Z,99.90
2022-12-25T13:26:41.009Z,99.90
2022-12-25T13:29:34.265Z,99.90
2022-12-25T13:32:26.679Z,99.90
2022-12-25T13:35:16.757Z,99.90
2022-12-25T13:38:11.595Z,99.90
2022-12-25T13:41:19.286Z,99.90
2022-12-25T13:44:16.935Z,99.90
2022-12-25T13:47:16.785Z,99.90
2022-12-25T13:50:17.290Z,99.90
2022-12-25T13:53:15.150Z,99.90
2022-12-25T13:56:05.313Z,99.90
2022-12-25T13:58:54.256Z,99.90
2022-12-25T14:01:44.277Z,99.90
2022-12-25T14:04:33.943Z,99.90
2022-12-25T14:07:26.028Z,99.90
2022-12-25T14:10:15.174Z,99.90
2022-12-25T14:13:09.648Z,99.90
2022-12-25T14:15:59.918Z,99.90
2022-12-25T14:18:53.141Z,99.90
2022-12-25T14:21:49.289Z,99.90
2022-12-25T14:24:38.867Z,99.90
2022-12-25T14:27:30.371Z,99.90
2022-12-25T14:30:20.763Z,99.90
2022-12-25T14:33:15.787Z,99.90
2022-12-25T14:36:04.736Z,99.90
2022-12-25T14:38:58.994Z,99.90
2022-12-25T14:41:54.775Z,99.90
2022-12-25T14:44:43.360Z,99.90
2022-12-25T14:47:35.331Z,99.90
2022-12-25T14:50:28.180Z,99.90
2022-12-25T14:53:21.154Z,99.90
2022-12-25T14:56:10.713Z,99.90
2022-12-25T14:59:00.908Z,99.90
2022-12-25T15:01:55.199Z,99.90
2022-12-25T15:04:46.273Z,99.90
2022-12-25T15:07:34.860Z,99.90
2022-12-25T15:13:32.659Z,99.90
2022-12-25T15:16:24.405Z,99.90
2022-12-25T15:19:23.385Z,99.90
2022-12-25T15:22:15.618Z,99.90
2022-12-25T15:25:04.406Z,99.90
2022-12-25T15:27:53.038Z,99.90
2022-12-25T15:30:42.209Z,99.90
2022-12-25T15:33:30.858Z,99.90
2022-12-25T15:36:19.675Z,99.90
2022-12-25T15:39:09.634Z,99.90
2022-12-25T15:42:13.083Z,99.90
2022-12-25T15:45:01.662Z,99.90
2022-12-25T15:47:50.312Z,99.90
2022-12-25T15:50:39.646Z,99.90
2022-12-25T15:53:28.305Z,99.90
2022-12-25T15:56:18.498Z,99.90
2022-12-25T15:59:07.145Z,99.90
2022-12-25T16:01:57.403Z,99.90
2022-12-25T16:04:46.205Z,99.90
2022-12-25T16:07:36.291Z,99.90
2022-12-25T16:10:24.874Z,99.90
2022-12-25T16:13:14.884Z,99.90
2022-12-25T16:16:03.753Z,99.90
2022-12-25T16:18:52.373Z,99.90
2022-12-25T16:21:44.184Z,99.90
2022-12-25T16:24:32.747Z,99.90
2022-12-25T16:27:21.677Z,99.90
2022-12-25T16:30:13.853Z,99.90
2022-12-25T16:33:02.465Z,99.90
2022-12-25T16:35:52.605Z,99.90
2022-12-25T16:38:41.254Z,99.90
2022-12-25T16:41:29.873Z,99.90
2022-12-25T16:44:18.509Z,99.90
2022-12-25T16:47:08.579Z,99.90
2022-12-25T16:49:57.134Z,99.90
2022-12-25T16:52:45.686Z,99.90
2022-12-25T16:55:36.865Z,99.90
2022-12-25T16:58:25.427Z,99.90
2022-12-25T17:01:16.258Z,99.90
2022-12-25T17:04:06.515Z,99.90
2022-12-25T17:06:55.194Z,99.90
2022-12-25T17:09:49.779Z,99.90
2022-12-25T17:12:38.770Z,99.90
2022-12-25T17:15:27.334Z,99.90
2022-12-25T17:18:17.443Z,99.90
2022-12-25T17:21:07.469Z,99.90
2022-12-25T17:24:02.350Z,99.90
2022-12-25T17:26:52.048Z,99.90
2022-12-25T17:29:41.143Z,99.90
2022-12-25T17:32:29.724Z,99.90
2022-12-25T17:35:21.461Z,99.90
2022-12-25T17:38:11.490Z,99.90
2022-12-25T17:41:02.317Z,99.90
2022-12-25T17:43:50.966Z,99.90
2022-12-25T17:46:39.548Z,99.90
2022-12-25T17:49:28.165Z,99.90
2022-12-25T17:52:16.779Z,99.90
2022-12-25T17:55:07.882Z,99.90
2022-12-25T17:57:56.545Z,99.90
2022-12-25T18:00:45.094Z,99.90
2022-12-25T18:03:34.203Z,99.90
2022-12-25T18:06:24.967Z,99.80
2022-12-25T18:09:14.296Z,99.50
2022-12-25T18:12:04.361Z,99.60
2022-12-25T18:14:53.026Z,98.80
2022-12-25T18:17:41.660Z,98.80
2022-12-25T18:20:35.879Z,98.20
2022-12-25T18:23:26.922Z,98.30
2022-12-25T18:26:15.527Z,98.00
2022-12-25T18:29:07.024Z,97.70
2022-12-25T18:31:56.011Z,98.40
2022-12-25T18:34:44.746Z,97.30
2022-12-25T18:37:39.669Z,97.00
2022-12-25T18:40:28.909Z,97.50
2022-12-25T18:43:17.509Z,98.00
2022-12-25T18:46:08.250Z,98.80
2022-12-25T18:48:57.978Z,99.10
2022-12-25T18:51:46.564Z,98.90
2022-12-25T18:54:35.211Z,99.20
2022-12-25T18:57:23.792Z,99.50
2022-12-25T19:00:12.893Z,99.50
2022-12-25T19:03:02.981Z,99.50
2022-12-25T19:05:51.741Z,99.90
2022-12-25T19:08:40.315Z,99.90
2022-12-25T19:11:28.844Z,99.90
2022-12-25T19:14:17.441Z,99.90
2022-12-25T19:17:06.042Z,99.90
2022-12-25T19:19:56.042Z,99.90
2022-12-25T19:22:44.696Z,99.90
2022-12-25T19:25:33.332Z,99.90
2022-12-25T19:28:22.035Z,99.90
2022-12-25T19:31:11.837Z,99.90
2022-12-25T19:34:00.449Z,99.90
2022-12-25T19:36:50.422Z,99.90
2022-12-25T19:39:39.932Z,99.90
2022-12-25T19:42:28.474Z,99.90
2022-12-25T19:45:17.116Z,99.90
2022-12-25T19:48:06.583Z,99.90
2022-12-25T19:50:55.662Z,99.90
2022-12-25T19:53:46.755Z,99.90
2022-12-25T19:56:35.759Z,99.90
2022-12-25T19:59:24.555Z,99.90
2022-12-25T20:02:13.361Z,99.90
2022-12-25T20:05:01.961Z,99.90
2022-12-25T20:07:50.600Z,99.90
2022-12-25T20:10:45.658Z,99.90
2022-12-25T20:13:34.199Z,99.90
2022-12-25T20:16:22.772Z,99.90
2022-12-25T20:19:13.039Z,99.90
2022-12-25T20:22:01.571Z,99.90
2022-12-25T20:24:50.232Z,99.90
2022-12-25T20:27:40.252Z,99.90
2022-12-25T20:30:28.845Z,99.90
2022-12-25T20:33:17.401Z,99.90
2022-12-25T20:36:07.834Z,99.90
2022-12-25T20:38:56.474Z,99.90
2022-12-25T20:41:45.219Z,99.90
2022-12-25T20:44:35.254Z,99.90
2022-12-25T20:47:23.925Z,99.90
2022-12-25T20:50:12.493Z,99.90
2022-12-25T20:53:01.059Z,99.90
2022-12-25T20:55:51.339Z,99.90
2022-12-25T20:58:40.191Z,99.40
2022-12-25T21:01:32.210Z,99.90
2022-12-25T21:04:20.976Z,99.90
2022-12-25T21:07:09.533Z,99.90
2022-12-25T21:09:59.258Z,99.90
2022-12-25T21:12:47.854Z,99.40
2022-12-25T21:15:36.479Z,99.60
2022-12-25T21:18:28.119Z,99.40
2022-12-25T21:21:16.909Z,99.00
2022-12-25T21:24:05.911Z,98.90
2022-12-25T21:26:54.604Z,99.60
2022-12-25T21:29:43.600Z,99.80
2022-12-25T21:32:49.598Z,99.70
2022-12-25T21:35:39.797Z,99.20
2022-12-25T21:38:28.372Z,98.20
2022-12-25T21:41:17.381Z,97.70
2022-12-25T21:44:06.386Z,98.10
2022-12-25T21:46:55.040Z,97.90
2022-12-25T21:50:00.992Z,96.50
2022-12-25T21:52:51.032Z,96.40
2022-12-25T21:55:39.593Z,96.50
2022-12-25T21:58:28.261Z,95.60
2022-12-25T22:01:17.575Z,94.50
2022-12-25T22:04:08.103Z,94.00
2022-12-25T22:07:13.871Z,93.90
2022-12-25T22:10:03.936Z,93.00
2022-12-25T22:13:09.824Z,91.60
2022-12-25T22:16:22.805Z,91.00
2022-12-25T22:19:29.034Z,91.30
2022-12-25T22:22:21.124Z,89.90
2022-12-25T22:25:12.092Z,88.90
2022-12-25T22:28:01.309Z,89.80
2022-12-25T22:30:49.873Z,91.00
2022-12-25T22:33:38.494Z,89.50
2022-12-25T22:36:27.075Z,90.50
2022-12-25T22:39:15.625Z,91.30
2022-12-25T22:42:05.716Z,92.60
2022-12-25T22:44:54.291Z,92.20
2022-12-25T22:47:43.268Z,92.30
2022-12-25T22:50:32.304Z,92.60
2022-12-25T22:53:20.921Z,91.80
2022-12-25T22:56:10.517Z,91.20
2022-12-25T22:59:00.511Z,91.70
2022-12-25T23:01:49.239Z,91.40
2022-12-25T23:04:38.179Z,90.90
2022-12-25T23:07:26.826Z,92.10
2022-12-25T23:10:15.391Z,90.20
2022-12-25T23:13:21.211Z,89.50
2022-12-25T23:16:14.854Z,89.80
2022-12-25T23:19:20.746Z,90.10
2022-12-25T23:22:28.926Z,91.10
2022-12-25T23:25:34.781Z,90.70
2022-12-25T23:28:37.529Z,90.60
2022-12-25T23:31:30.916Z,92.00
2022-12-25T23:34:19.612Z,91.80
2022-12-25T23:37:08.890Z,91.40
2022-12-25T23:39:57.510Z,91.20
2022-12-25T23:42:46.400Z,91.70
2022-12-25T23:45:35.004Z,92.30
2022-12-25T23:48:25.077Z,93.90
2022-12-25T23:51:13.708Z,94.60
2022-12-25T23:54:02.334Z,94.10
2022-12-25T23:56:51.534Z,93.80
2022-12-25T23:59:40.085Z,93.70
